sensor_id;sensor_type;location;lat;lon;timestamp;P1;durP1;ratioP1;P2;durP2;ratioP2
6549;SDS011;15142;48.888;9.134;2023-04-09T00:00:03;17.47;;;10.13;;
6549;SDS011;15142;48.888;9.134;2023-04-09T00:02:40;19.60;;;8.83;;
6549;SDS011;15142;48.888;9.134;2023-04-09T00:05:08;12.43;;;7.80;;
6549;SDS011;15142;48.888;9.134;2023-04-09T00:07:38;11.33;;;8.43;;
6549;SDS011;15142;48.888;9.134;2023-04-09T00:10:07;13.20;;;8.87;;
6549;SDS011;15142;48.888;9.134;2023-04-09T00:12:36;17.87;;;10.90;;
6549;SDS011;15142;48.888;9.134;2023-04-09T00:15:05;13.07;;;8.60;;
6549;SDS011;15142;48.888;9.134;2023-04-09T00:17:35;18.10;;;10.27;;
6549;SDS011;15142;48.888;9.134;2023-04-09T00:20:07;16.83;;;9.37;;
6549;SDS011;15142;48.888;9.134;2023-04-09T00:22:37;16.83;;;10.57;;
6549;SDS011;15142;48.888;9.134;2023-04-09T00:25:06;14.43;;;10.47;;
6549;SDS011;15142;48.888;9.134;2023-04-09T00:27:36;16.70;;;10.23;;
6549;SDS011;15142;48.888;9.134;2023-04-09T00:30:05;10.97;;;8.00;;
6549;SDS011;15142;48.888;9.134;2023-04-09T00:32:36;10.63;;;9.17;;
6549;SDS011;15142;48.888;9.134;2023-04-09T00:35:08;12.73;;;9.00;;
6549;SDS011;15142;48.888;9.134;2023-04-09T00:37:36;10.70;;;7.30;;
6549;SDS011;15142;48.888;9.134;2023-04-09T00:40:06;15.80;;;7.17;;
6549;SDS011;15142;48.888;9.134;2023-04-09T00:42:35;11.20;;;7.30;;
6549;SDS011;15142;48.888;9.134;2023-04-09T00:45:05;12.43;;;8.70;;
6549;SDS011;15142;48.888;9.134;2023-04-09T00:47:35;15.50;;;8.97;;
6549;SDS011;15142;48.888;9.134;2023-04-09T00:50:04;13.93;;;10.20;;
6549;SDS011;15142;48.888;9.134;2023-04-09T00:52:36;15.37;;;9.57;;
6549;SDS011;15142;48.888;9.134;2023-04-09T00:55:06;14.77;;;10.13;;
6549;SDS011;15142;48.888;9.134;2023-04-09T00:57:37;15.03;;;9.70;;
6549;SDS011;15142;48.888;9.134;2023-04-09T01:00:06;19.50;;;10.70;;
6549;SDS011;15142;48.888;9.134;2023-04-09T01:02:38;16.43;;;9.63;;
6549;SDS011;15142;48.888;9.134;2023-04-09T01:05:10;16.20;;;10.40;;
6549;SDS011;15142;48.888;9.134;2023-04-09T01:07:44;15.23;;;11.53;;
6549;SDS011;15142;48.888;9.134;2023-04-09T01:10:23;17.33;;;11.30;;
6549;SDS011;15142;48.888;9.134;2023-04-09T01:12:59;17.13;;;11.27;;
6549;SDS011;15142;48.888;9.134;2023-04-09T01:15:36;16.80;;;10.20;;
6549;SDS011;15142;48.888;9.134;2023-04-09T01:18:10;11.77;;;8.77;;
6549;SDS011;15142;48.888;9.134;2023-04-09T01:20:46;15.40;;;11.07;;
6549;SDS011;15142;48.888;9.134;2023-04-09T01:23:25;19.30;;;11.90;;
6549;SDS011;15142;48.888;9.134;2023-04-09T01:26:02;13.67;;;10.40;;
6549;SDS011;15142;48.888;9.134;2023-04-09T01:28:47;16.40;;;10.80;;
6549;SDS011;15142;48.888;9.134;2023-04-09T01:31:20;14.40;;;10.20;;
6549;SDS011;15142;48.888;9.134;2023-04-09T01:33:55;18.23;;;9.93;;
6549;SDS011;15142;48.888;9.134;2023-04-09T01:36:25;19.10;;;11.67;;
6549;SDS011;15142;48.888;9.134;2023-04-09T01:38:59;15.70;;;9.93;;
6549;SDS011;15142;48.888;9.134;2023-04-09T01:41:29;14.20;;;10.40;;
6549;SDS011;15142;48.888;9.134;2023-04-09T01:44:03;15.73;;;10.03;;
6549;SDS011;15142;48.888;9.134;2023-04-09T01:46:34;16.37;;;10.13;;
6549;SDS011;15142;48.888;9.134;2023-04-09T01:49:06;16.03;;;10.57;;
6549;SDS011;15142;48.888;9.134;2023-04-09T01:51:37;15.40;;;9.97;;
6549;SDS011;15142;48.888;9.134;2023-04-09T01:54:06;18.90;;;10.37;;
6549;SDS011;15142;48.888;9.134;2023-04-09T01:56:39;12.73;;;10.20;;
6549;SDS011;15142;48.888;9.134;2023-04-09T01:59:12;15.70;;;10.00;;
6549;SDS011;15142;48.888;9.134;2023-04-09T02:01:43;12.73;;;9.13;;
6549;SDS011;15142;48.888;9.134;2023-04-09T02:04:15;17.37;;;10.77;;
6549;SDS011;15142;48.888;9.134;2023-04-09T02:06:52;16.53;;;10.67;;
6549;SDS011;15142;48.888;9.134;2023-04-09T02:09:26;13.03;;;9.10;;
6549;SDS011;15142;48.888;9.134;2023-04-09T02:11:57;15.13;;;9.67;;
6549;SDS011;15142;48.888;9.134;2023-04-09T02:14:32;16.43;;;10.63;;
6549;SDS011;15142;48.888;9.134;2023-04-09T02:17:03;15.53;;;9.70;;
6549;SDS011;15142;48.888;9.134;2023-04-09T02:19:39;12.90;;;9.50;;
6549;SDS011;15142;48.888;9.134;2023-04-09T02:22:09;14.37;;;9.30;;
6549;SDS011;15142;48.888;9.134;2023-04-09T02:24:39;14.17;;;10.40;;
6549;SDS011;15142;48.888;9.134;2023-04-09T02:27:08;15.27;;;9.90;;
6549;SDS011;15142;48.888;9.134;2023-04-09T02:29:40;14.10;;;9.93;;
6549;SDS011;15142;48.888;9.134;2023-04-09T02:32:10;13.77;;;9.90;;
6549;SDS011;15142;48.888;9.134;2023-04-09T02:34:39;13.70;;;9.30;;
6549;SDS011;15142;48.888;9.134;2023-04-09T02:37:08;16.07;;;10.70;;
6549;SDS011;15142;48.888;9.134;2023-04-09T02:39:36;12.03;;;9.10;;
6549;SDS011;15142;48.888;9.134;2023-04-09T02:42:06;13.27;;;10.10;;
6549;SDS011;15142;48.888;9.134;2023-04-09T02:44:35;16.70;;;10.70;;
6549;SDS011;15142;48.888;9.134;2023-04-09T02:47:06;13.60;;;9.73;;
6549;SDS011;15142;48.888;9.134;2023-04-09T02:49:36;13.23;;;8.47;;
6549;SDS011;15142;48.888;9.134;2023-04-09T02:52:05;10.93;;;7.60;;
6549;SDS011;15142;48.888;9.134;2023-04-09T02:54:34;12.67;;;8.93;;
6549;SDS011;15142;48.888;9.134;2023-04-09T02:57:03;13.47;;;9.30;;
6549;SDS011;15142;48.888;9.134;2023-04-09T02:59:32;19.17;;;9.43;;
6549;SDS011;15142;48.888;9.134;2023-04-09T03:02:00;17.00;;;9.63;;
6549;SDS011;15142;48.888;9.134;2023-04-09T03:04:32;12.50;;;10.03;;
6549;SDS011;15142;48.888;9.134;2023-04-09T03:07:01;18.33;;;11.43;;
6549;SDS011;15142;48.888;9.134;2023-04-09T03:09:29;15.07;;;9.50;;
6549;SDS011;15142;48.888;9.134;2023-04-09T03:11:58;12.20;;;7.80;;
6549;SDS011;15142;48.888;9.134;2023-04-09T03:14:27;13.83;;;8.50;;
6549;SDS011;15142;48.888;9.134;2023-04-09T03:16:56;13.90;;;9.63;;
6549;SDS011;15142;48.888;9.134;2023-04-09T03:19:25;14.93;;;9.10;;
6549;SDS011;15142;48.888;9.134;2023-04-09T03:21:56;13.20;;;8.37;;
6549;SDS011;15142;48.888;9.134;2023-04-09T03:24:27;13.30;;;9.13;;
6549;SDS011;15142;48.888;9.134;2023-04-09T03:27:00;18.10;;;9.87;;
6549;SDS011;15142;48.888;9.134;2023-04-09T03:29:30;14.30;;;8.97;;
6549;SDS011;15142;48.888;9.134;2023-04-09T03:32:00;15.40;;;9.97;;
6549;SDS011;15142;48.888;9.134;2023-04-09T03:34:28;16.33;;;9.40;;
6549;SDS011;15142;48.888;9.134;2023-04-09T03:37:00;23.57;;;10.40;;
6549;SDS011;15142;48.888;9.134;2023-04-09T03:39:30;15.33;;;8.90;;
6549;SDS011;15142;48.888;9.134;2023-04-09T03:41:59;16.27;;;8.27;;
6549;SDS011;15142;48.888;9.134;2023-04-09T03:44:38;13.73;;;9.00;;
6549;SDS011;15142;48.888;9.134;2023-04-09T03:47:10;16.00;;;9.60;;
6549;SDS011;15142;48.888;9.134;2023-04-09T03:49:39;19.80;;;10.70;;
6549;SDS011;15142;48.888;9.134;2023-04-09T03:52:20;15.70;;;10.70;;
6549;SDS011;15142;48.888;9.134;2023-04-09T03:54:59;22.70;;;10.23;;
6549;SDS011;15142;48.888;9.134;2023-04-09T03:57:31;14.20;;;8.37;;
6549;SDS011;15142;48.888;9.134;2023-04-09T04:00:00;15.47;;;10.03;;
6549;SDS011;15142;48.888;9.134;2023-04-09T04:02:37;14.77;;;8.33;;
6549;SDS011;15142;48.888;9.134;2023-04-09T04:05:07;31.57;;;10.20;;
6549;SDS011;15142;48.888;9.134;2023-04-09T04:07:45;18.60;;;9.73;;
6549;SDS011;15142;48.888;9.134;2023-04-09T04:10:23;17.50;;;11.17;;
6549;SDS011;15142;48.888;9.134;2023-04-09T04:12:52;18.40;;;9.10;;
6549;SDS011;15142;48.888;9.134;2023-04-09T04:15:27;17.40;;;8.93;;
6549;SDS011;15142;48.888;9.134;2023-04-09T04:17:57;17.37;;;10.87;;
6549;SDS011;15142;48.888;9.134;2023-04-09T04:20:44;12.53;;;9.00;;
6549;SDS011;15142;48.888;9.134;2023-04-09T04:23:16;15.30;;;8.80;;
6549;SDS011;15142;48.888;9.134;2023-04-09T04:25:51;11.73;;;8.80;;
6549;SDS011;15142;48.888;9.134;2023-04-09T04:28:29;14.97;;;8.87;;
6549;SDS011;15142;48.888;9.134;2023-04-09T04:30:59;10.40;;;8.00;;
6549;SDS011;15142;48.888;9.134;2023-04-09T04:33:30;13.40;;;9.30;;
6549;SDS011;15142;48.888;9.134;2023-04-09T04:36:05;16.53;;;10.53;;
6549;SDS011;15142;48.888;9.134;2023-04-09T04:38:44;16.73;;;8.17;;
6549;SDS011;15142;48.888;9.134;2023-04-09T04:41:18;17.70;;;8.63;;
6549;SDS011;15142;48.888;9.134;2023-04-09T04:43:55;22.13;;;8.97;;
6549;SDS011;15142;48.888;9.134;2023-04-09T04:46:24;14.20;;;10.10;;
6549;SDS011;15142;48.888;9.134;2023-04-09T04:48:53;10.50;;;8.27;;
6549;SDS011;15142;48.888;9.134;2023-04-09T04:51:22;15.70;;;9.17;;
6549;SDS011;15142;48.888;9.134;2023-04-09T04:54:09;11.77;;;9.00;;
6549;SDS011;15142;48.888;9.134;2023-04-09T04:56:42;11.90;;;8.73;;
6549;SDS011;15142;48.888;9.134;2023-04-09T04:59:31;13.40;;;9.77;;
6549;SDS011;15142;48.888;9.134;2023-04-09T05:02:04;12.13;;;9.43;;
6549;SDS011;15142;48.888;9.134;2023-04-09T05:05:05;14.70;;;9.00;;
6549;SDS011;15142;48.888;9.134;2023-04-09T05:07:41;15.30;;;8.90;;
6549;SDS011;15142;48.888;9.134;2023-04-09T05:10:13;18.00;;;9.33;;
6549;SDS011;15142;48.888;9.134;2023-04-09T05:12:42;13.43;;;8.53;;
6549;SDS011;15142;48.888;9.134;2023-04-09T05:15:19;14.10;;;8.03;;
6549;SDS011;15142;48.888;9.134;2023-04-09T05:17:47;12.77;;;8.10;;
6549;SDS011;15142;48.888;9.134;2023-04-09T05:20:17;13.23;;;8.33;;
6549;SDS011;15142;48.888;9.134;2023-04-09T05:23:02;13.50;;;8.20;;
6549;SDS011;15142;48.888;9.134;2023-04-09T05:25:39;17.47;;;10.37;;
6549;SDS011;15142;48.888;9.134;2023-04-09T05:28:15;13.67;;;9.03;;
6549;SDS011;15142;48.888;9.134;2023-04-09T05:30:47;11.20;;;8.30;;
6549;SDS011;15142;48.888;9.134;2023-04-09T05:33:17;9.87;;;8.00;;
6549;SDS011;15142;48.888;9.134;2023-04-09T05:35:47;13.13;;;8.70;;
6549;SDS011;15142;48.888;9.134;2023-04-09T05:38:16;16.90;;;9.83;;
6549;SDS011;15142;48.888;9.134;2023-04-09T05:40:56;11.33;;;8.27;;
6549;SDS011;15142;48.888;9.134;2023-04-09T05:43:25;14.67;;;9.97;;
6549;SDS011;15142;48.888;9.134;2023-04-09T05:45:54;13.77;;;8.57;;
6549;SDS011;15142;48.888;9.134;2023-04-09T05:48:22;11.93;;;8.60;;
6549;SDS011;15142;48.888;9.134;2023-04-09T05:50:52;12.00;;;7.40;;
6549;SDS011;15142;48.888;9.134;2023-04-09T05:53:24;15.00;;;8.63;;
6549;SDS011;15142;48.888;9.134;2023-04-09T05:55:56;13.43;;;7.77;;
6549;SDS011;15142;48.888;9.134;2023-04-09T05:58:33;17.20;;;9.30;;
6549;SDS011;15142;48.888;9.134;2023-04-09T06:01:02;14.10;;;9.77;;
6549;SDS011;15142;48.888;9.134;2023-04-09T06:03:31;15.73;;;9.10;;
6549;SDS011;15142;48.888;9.134;2023-04-09T06:06:00;16.70;;;8.33;;
6549;SDS011;15142;48.888;9.134;2023-04-09T06:08:29;13.70;;;8.97;;
6549;SDS011;15142;48.888;9.134;2023-04-09T06:11:00;20.90;;;8.70;;
6549;SDS011;15142;48.888;9.134;2023-04-09T06:13:32;16.73;;;9.40;;
6549;SDS011;15142;48.888;9.134;2023-04-09T06:16:02;13.17;;;8.57;;
6549;SDS011;15142;48.888;9.134;2023-04-09T06:18:31;11.00;;;8.30;;
6549;SDS011;15142;48.888;9.134;2023-04-09T06:21:00;14.00;;;7.90;;
6549;SDS011;15142;48.888;9.134;2023-04-09T06:23:30;17.43;;;10.53;;
6549;SDS011;15142;48.888;9.134;2023-04-09T06:26:02;15.10;;;9.43;;
6549;SDS011;15142;48.888;9.134;2023-04-09T06:28:31;14.87;;;8.40;;
6549;SDS011;15142;48.888;9.134;2023-04-09T06:31:01;14.07;;;8.73;;
6549;SDS011;15142;48.888;9.134;2023-04-09T06:33:29;15.33;;;9.30;;
6549;SDS011;15142;48.888;9.134;2023-04-09T06:35:58;13.53;;;8.93;;
6549;SDS011;15142;48.888;9.134;2023-04-09T06:38:27;12.57;;;8.53;;
6549;SDS011;15142;48.888;9.134;2023-04-09T06:40:56;13.50;;;9.60;;
6549;SDS011;15142;48.888;9.134;2023-04-09T06:43:27;12.30;;;8.80;;
6549;SDS011;15142;48.888;9.134;2023-04-09T06:45:56;15.40;;;10.57;;
6549;SDS011;15142;48.888;9.134;2023-04-09T06:48:25;13.73;;;8.40;;
6549;SDS011;15142;48.888;9.134;2023-04-09T06:50:53;18.70;;;9.87;;
6549;SDS011;15142;48.888;9.134;2023-04-09T06:53:22;14.90;;;8.93;;
6549;SDS011;15142;48.888;9.134;2023-04-09T06:55:51;13.30;;;8.93;;
6549;SDS011;15142;48.888;9.134;2023-04-09T06:58:20;16.67;;;10.47;;
6549;SDS011;15142;48.888;9.134;2023-04-09T07:00:51;13.27;;;7.83;;
6549;SDS011;15142;48.888;9.134;2023-04-09T07:03:20;12.97;;;7.90;;
6549;SDS011;15142;48.888;9.134;2023-04-09T07:05:49;9.80;;;7.60;;
6549;SDS011;15142;48.888;9.134;2023-04-09T07:08:18;11.27;;;8.60;;
6549;SDS011;15142;48.888;9.134;2023-04-09T07:10:47;10.07;;;8.30;;
6549;SDS011;15142;48.888;9.134;2023-04-09T07:13:16;12.43;;;7.83;;
6549;SDS011;15142;48.888;9.134;2023-04-09T07:15:45;12.80;;;8.70;;
6549;SDS011;15142;48.888;9.134;2023-04-09T07:18:16;13.80;;;9.10;;
6549;SDS011;15142;48.888;9.134;2023-04-09T07:20:45;13.77;;;8.70;;
6549;SDS011;15142;48.888;9.134;2023-04-09T07:23:13;14.10;;;8.70;;
6549;SDS011;15142;48.888;9.134;2023-04-09T07:25:42;14.03;;;9.53;;
6549;SDS011;15142;48.888;9.134;2023-04-09T07:28:10;11.93;;;8.30;;
6549;SDS011;15142;48.888;9.134;2023-04-09T07:30:39;13.50;;;8.60;;
6549;SDS011;15142;48.888;9.134;2023-04-09T07:33:08;13.30;;;8.27;;
6549;SDS011;15142;48.888;9.134;2023-04-09T07:35:39;11.87;;;7.97;;
6549;SDS011;15142;48.888;9.134;2023-04-09T07:38:07;9.23;;;6.97;;
6549;SDS011;15142;48.888;9.134;2023-04-09T07:40:36;13.13;;;8.33;;
6549;SDS011;15142;48.888;9.134;2023-04-09T07:43:05;9.97;;;7.03;;
6549;SDS011;15142;48.888;9.134;2023-04-09T07:45:34;11.77;;;7.77;;
6549;SDS011;15142;48.888;9.134;2023-04-09T07:48:02;9.37;;;7.30;;
6549;SDS011;15142;48.888;9.134;2023-04-09T07:50:33;10.17;;;7.10;;
6549;SDS011;15142;48.888;9.134;2023-04-09T07:53:05;11.07;;;7.17;;
6549;SDS011;15142;48.888;9.134;2023-04-09T07:55:34;7.60;;;5.80;;
6549;SDS011;15142;48.888;9.134;2023-04-09T07:58:02;10.90;;;7.20;;
6549;SDS011;15142;48.888;9.134;2023-04-09T08:00:32;11.63;;;8.23;;
6549;SDS011;15142;48.888;9.134;2023-04-09T08:03:00;10.33;;;6.87;;
6549;SDS011;15142;48.888;9.134;2023-04-09T08:05:29;9.90;;;6.23;;
6549;SDS011;15142;48.888;9.134;2023-04-09T08:07:59;11.03;;;5.90;;
6549;SDS011;15142;48.888;9.134;2023-04-09T08:13:01;7.20;;;5.50;;
6549;SDS011;15142;48.888;9.134;2023-04-09T08:15:30;11.07;;;5.10;;
6549;SDS011;15142;48.888;9.134;2023-04-09T08:17:59;8.30;;;6.37;;
6549;SDS011;15142;48.888;9.134;2023-04-09T08:20:28;7.50;;;5.27;;
6549;SDS011;15142;48.888;9.134;2023-04-09T08:22:57;7.43;;;5.57;;
6549;SDS011;15142;48.888;9.134;2023-04-09T08:25:27;7.10;;;5.63;;
6549;SDS011;15142;48.888;9.134;2023-04-09T08:27:58;6.90;;;5.07;;
6549;SDS011;15142;48.888;9.134;2023-04-09T08:30:27;9.17;;;6.57;;
6549;SDS011;15142;48.888;9.134;2023-04-09T08:32:58;7.00;;;5.70;;
6549;SDS011;15142;48.888;9.134;2023-04-09T08:35:28;9.47;;;5.97;;
6549;SDS011;15142;48.888;9.134;2023-04-09T08:37:57;7.10;;;4.97;;
6549;SDS011;15142;48.888;9.134;2023-04-09T08:40:26;5.80;;;4.47;;
6549;SDS011;15142;48.888;9.134;2023-04-09T08:42:58;5.57;;;4.17;;
6549;SDS011;15142;48.888;9.134;2023-04-09T08:45:28;6.57;;;5.27;;
6549;SDS011;15142;48.888;9.134;2023-04-09T08:47:57;5.90;;;4.07;;
6549;SDS011;15142;48.888;9.134;2023-04-09T08:50:28;4.67;;;3.20;;
6549;SDS011;15142;48.888;9.134;2023-04-09T08:53:00;6.10;;;5.30;;
6549;SDS011;15142;48.888;9.134;2023-04-09T08:55:30;5.10;;;3.80;;
6549;SDS011;15142;48.888;9.134;2023-04-09T08:58:01;3.97;;;3.10;;
6549;SDS011;15142;48.888;9.134;2023-04-09T09:00:31;6.10;;;4.60;;
6549;SDS011;15142;48.888;9.134;2023-04-09T09:03:01;8.20;;;4.53;;
6549;SDS011;15142;48.888;9.134;2023-04-09T09:05:34;5.90;;;4.10;;
6549;SDS011;15142;48.888;9.134;2023-04-09T09:08:05;6.83;;;5.63;;
6549;SDS011;15142;48.888;9.134;2023-04-09T09:10:38;5.13;;;4.33;;
6549;SDS011;15142;48.888;9.134;2023-04-09T09:13:17;7.37;;;6.27;;
6549;SDS011;15142;48.888;9.134;2023-04-09T09:15:49;6.50;;;3.93;;
6549;SDS011;15142;48.888;9.134;2023-04-09T09:18:19;6.33;;;4.53;;
6549;SDS011;15142;48.888;9.134;2023-04-09T09:20:49;5.80;;;3.90;;
6549;SDS011;15142;48.888;9.134;2023-04-09T09:23:20;9.07;;;5.43;;
6549;SDS011;15142;48.888;9.134;2023-04-09T09:26:09;5.37;;;4.17;;
6549;SDS011;15142;48.888;9.134;2023-04-09T09:28:42;5.50;;;4.33;;
6549;SDS011;15142;48.888;9.134;2023-04-09T09:31:11;5.53;;;4.20;;
6549;SDS011;15142;48.888;9.134;2023-04-09T09:33:41;5.80;;;4.00;;
6549;SDS011;15142;48.888;9.134;2023-04-09T09:36:10;4.80;;;4.30;;
6549;SDS011;15142;48.888;9.134;2023-04-09T09:41:26;9.70;;;5.63;;
6549;SDS011;15142;48.888;9.134;2023-04-09T09:43:58;8.73;;;5.23;;
6549;SDS011;15142;48.888;9.134;2023-04-09T09:46:29;6.03;;;5.10;;
6549;SDS011;15142;48.888;9.134;2023-04-09T09:49:01;5.70;;;4.70;;
6549;SDS011;15142;48.888;9.134;2023-04-09T09:51:30;5.47;;;3.90;;
6549;SDS011;15142;48.888;9.134;2023-04-09T09:54:01;9.07;;;5.00;;
6549;SDS011;15142;48.888;9.134;2023-04-09T09:56:31;5.20;;;4.63;;
6549;SDS011;15142;48.888;9.134;2023-04-09T09:59:09;4.10;;;3.77;;
6549;SDS011;15142;48.888;9.134;2023-04-09T10:01:43;5.83;;;4.07;;
6549;SDS011;15142;48.888;9.134;2023-04-09T10:04:15;5.57;;;4.13;;
6549;SDS011;15142;48.888;9.134;2023-04-09T10:06:47;5.70;;;3.80;;
6549;SDS011;15142;48.888;9.134;2023-04-09T10:09:16;4.90;;;3.90;;
6549;SDS011;15142;48.888;9.134;2023-04-09T10:11:47;7.47;;;4.50;;
6549;SDS011;15142;48.888;9.134;2023-04-09T10:14:19;5.27;;;4.20;;
6549;SDS011;15142;48.888;9.134;2023-04-09T10:16:50;4.27;;;3.90;;
6549;SDS011;15142;48.888;9.134;2023-04-09T10:19:19;5.03;;;4.60;;
6549;SDS011;15142;48.888;9.134;2023-04-09T10:21:50;4.63;;;4.20;;
6549;SDS011;15142;48.888;9.134;2023-04-09T10:24:21;3.80;;;3.00;;
6549;SDS011;15142;48.888;9.134;2023-04-09T10:26:52;2.93;;;2.63;;
6549;SDS011;15142;48.888;9.134;2023-04-09T10:29:28;4.67;;;3.00;;
6549;SDS011;15142;48.888;9.134;2023-04-09T10:32:02;2.90;;;2.67;;
6549;SDS011;15142;48.888;9.134;2023-04-09T10:34:34;2.87;;;2.47;;
6549;SDS011;15142;48.888;9.134;2023-04-09T10:37:06;3.97;;;3.10;;
6549;SDS011;15142;48.888;9.134;2023-04-09T10:39:38;4.37;;;3.53;;
6549;SDS011;15142;48.888;9.134;2023-04-09T10:42:10;2.80;;;2.50;;
6549;SDS011;15142;48.888;9.134;2023-04-09T10:44:44;3.70;;;3.40;;
6549;SDS011;15142;48.888;9.134;2023-04-09T10:47:14;2.90;;;2.50;;
6549;SDS011;15142;48.888;9.134;2023-04-09T10:50:12;4.73;;;3.27;;
6549;SDS011;15142;48.888;9.134;2023-04-09T10:52:42;5.57;;;3.80;;
6549;SDS011;15142;48.888;9.134;2023-04-09T10:57:58;4.53;;;3.60;;
6549;SDS011;15142;48.888;9.134;2023-04-09T11:00:29;3.30;;;2.90;;
6549;SDS011;15142;48.888;9.134;2023-04-09T11:03:08;3.47;;;3.17;;
6549;SDS011;15142;48.888;9.134;2023-04-09T11:05:45;3.13;;;2.93;;
6549;SDS011;15142;48.888;9.134;2023-04-09T11:08:15;4.70;;;3.33;;
6549;SDS011;15142;48.888;9.134;2023-04-09T11:10:44;3.77;;;3.47;;
6549;SDS011;15142;48.888;9.134;2023-04-09T11:13:14;3.63;;;3.17;;
6549;SDS011;15142;48.888;9.134;2023-04-09T11:15:47;4.30;;;3.30;;
6549;SDS011;15142;48.888;9.134;2023-04-09T11:18:19;3.70;;;3.40;;
6549;SDS011;15142;48.888;9.134;2023-04-09T11:20:49;3.47;;;3.17;;
6549;SDS011;15142;48.888;9.134;2023-04-09T11:23:21;3.23;;;2.93;;
6549;SDS011;15142;48.888;9.134;2023-04-09T11:25:51;4.37;;;3.97;;
6549;SDS011;15142;48.888;9.134;2023-04-09T11:28:21;11.77;;;9.07;;
6549;SDS011;15142;48.888;9.134;2023-04-09T11:30:53;5.30;;;4.50;;
6549;SDS011;15142;48.888;9.134;2023-04-09T11:33:21;6.87;;;4.97;;
6549;SDS011;15142;48.888;9.134;2023-04-09T11:35:51;9.40;;;5.90;;
6549;SDS011;15142;48.888;9.134;2023-04-09T11:38:19;6.93;;;5.30;;
6549;SDS011;15142;48.888;9.134;2023-04-09T11:40:48;5.60;;;4.53;;
6549;SDS011;15142;48.888;9.134;2023-04-09T11:43:17;4.13;;;3.77;;
6549;SDS011;15142;48.888;9.134;2023-04-09T11:45:46;4.37;;;3.97;;
6549;SDS011;15142;48.888;9.134;2023-04-09T11:48:18;3.80;;;3.47;;
6549;SDS011;15142;48.888;9.134;2023-04-09T11:50:49;5.90;;;3.30;;
6549;SDS011;15142;48.888;9.134;2023-04-09T11:53:18;2.90;;;2.60;;
6549;SDS011;15142;48.888;9.134;2023-04-09T11:55:48;4.23;;;2.63;;
6549;SDS011;15142;48.888;9.134;2023-04-09T11:58:21;3.17;;;2.77;;
6549;SDS011;15142;48.888;9.134;2023-04-09T12:00:53;3.50;;;2.73;;
6549;SDS011;15142;48.888;9.134;2023-04-09T12:03:31;2.70;;;2.30;;
6549;SDS011;15142;48.888;9.134;2023-04-09T12:06:02;2.40;;;2.30;;
6549;SDS011;15142;48.888;9.134;2023-04-09T12:08:32;2.80;;;2.60;;
6549;SDS011;15142;48.888;9.134;2023-04-09T12:11:08;3.17;;;2.97;;
6549;SDS011;15142;48.888;9.134;2023-04-09T12:13:37;3.17;;;2.87;;
6549;SDS011;15142;48.888;9.134;2023-04-09T12:16:07;4.50;;;3.60;;
6549;SDS011;15142;48.888;9.134;2023-04-09T12:18:39;2.37;;;2.20;;
6549;SDS011;15142;48.888;9.134;2023-04-09T12:21:08;4.30;;;2.97;;
6549;SDS011;15142;48.888;9.134;2023-04-09T12:23:37;3.37;;;3.07;;
6549;SDS011;15142;48.888;9.134;2023-04-09T12:26:05;3.20;;;2.50;;
6549;SDS011;15142;48.888;9.134;2023-04-09T12:28:34;3.20;;;2.90;;
6549;SDS011;15142;48.888;9.134;2023-04-09T12:31:03;3.33;;;3.03;;
6549;SDS011;15142;48.888;9.134;2023-04-09T12:33:32;3.97;;;3.63;;
6549;SDS011;15142;48.888;9.134;2023-04-09T12:36:05;4.03;;;3.37;;
6549;SDS011;15142;48.888;9.134;2023-04-09T12:38:34;3.43;;;3.13;;
6549;SDS011;15142;48.888;9.134;2023-04-09T12:41:03;3.93;;;3.53;;
6549;SDS011;15142;48.888;9.134;2023-04-09T12:43:32;3.30;;;2.80;;
6549;SDS011;15142;48.888;9.134;2023-04-09T12:46:01;2.87;;;2.67;;
6549;SDS011;15142;48.888;9.134;2023-04-09T12:48:30;2.73;;;2.53;;
6549;SDS011;15142;48.888;9.134;2023-04-09T12:50:59;2.83;;;2.53;;
6549;SDS011;15142;48.888;9.134;2023-04-09T12:53:31;3.27;;;2.97;;
6549;SDS011;15142;48.888;9.134;2023-04-09T12:56:00;2.63;;;2.43;;
6549;SDS011;15142;48.888;9.134;2023-04-09T12:58:29;2.87;;;2.67;;
6549;SDS011;15142;48.888;9.134;2023-04-09T13:00:58;6.50;;;2.70;;
6549;SDS011;15142;48.888;9.134;2023-04-09T13:03:28;3.50;;;3.20;;
6549;SDS011;15142;48.888;9.134;2023-04-09T13:05:58;3.30;;;3.00;;
6549;SDS011;15142;48.888;9.134;2023-04-09T13:08:26;2.53;;;2.33;;
6549;SDS011;15142;48.888;9.134;2023-04-09T13:10:58;2.83;;;2.57;;
6549;SDS011;15142;48.888;9.134;2023-04-09T13:13:26;2.77;;;2.47;;
6549;SDS011;15142;48.888;9.134;2023-04-09T13:15:55;3.00;;;2.80;;
6549;SDS011;15142;48.888;9.134;2023-04-09T13:18:25;4.00;;;3.60;;
6549;SDS011;15142;48.888;9.134;2023-04-09T13:20:53;3.60;;;3.10;;
6549;SDS011;15142;48.888;9.134;2023-04-09T13:23:22;3.67;;;3.37;;
6549;SDS011;15142;48.888;9.134;2023-04-09T13:25:50;3.03;;;2.70;;
6549;SDS011;15142;48.888;9.134;2023-04-09T13:28:22;4.40;;;3.00;;
6549;SDS011;15142;48.888;9.134;2023-04-09T13:30:51;4.50;;;3.40;;
6549;SDS011;15142;48.888;9.134;2023-04-09T13:33:20;11.13;;;5.13;;
6549;SDS011;15142;48.888;9.134;2023-04-09T13:35:49;21.27;;;10.30;;
6549;SDS011;15142;48.888;9.134;2023-04-09T13:38:18;11.23;;;6.20;;
6549;SDS011;15142;48.888;9.134;2023-04-09T13:40:47;11.90;;;6.27;;
6549;SDS011;15142;48.888;9.134;2023-04-09T13:43:16;5.50;;;2.83;;
6549;SDS011;15142;48.888;9.134;2023-04-09T13:45:48;41.13;;;17.00;;
6549;SDS011;15142;48.888;9.134;2023-04-09T13:48:18;21.73;;;5.70;;
6549;SDS011;15142;48.888;9.134;2023-04-09T13:50:48;3.53;;;3.23;;
6549;SDS011;15142;48.888;9.134;2023-04-09T13:53:18;4.67;;;3.47;;
6549;SDS011;15142;48.888;9.134;2023-04-09T13:55:48;14.87;;;8.00;;
6549;SDS011;15142;48.888;9.134;2023-04-09T13:58:18;7.53;;;4.30;;
6549;SDS011;15142;48.888;9.134;2023-04-09T14:00:50;5.90;;;4.10;;
6549;SDS011;15142;48.888;9.134;2023-04-09T14:03:19;20.33;;;8.33;;
6549;SDS011;15142;48.888;9.134;2023-04-09T14:08:17;8.43;;;3.93;;
6549;SDS011;15142;48.888;9.134;2023-04-09T14:10:46;25.47;;;10.60;;
6549;SDS011;15142;48.888;9.134;2023-04-09T14:13:15;17.00;;;7.10;;
6549;SDS011;15142;48.888;9.134;2023-04-09T14:15:44;6.77;;;3.80;;
6549;SDS011;15142;48.888;9.134;2023-04-09T14:18:17;11.50;;;6.73;;
6549;SDS011;15142;48.888;9.134;2023-04-09T14:20:45;4.20;;;3.50;;
6549;SDS011;15142;48.888;9.134;2023-04-09T14:23:14;3.40;;;3.00;;
6549;SDS011;15142;48.888;9.134;2023-04-09T14:25:43;4.63;;;3.47;;
6549;SDS011;15142;48.888;9.134;2023-04-09T14:28:12;31.20;;;13.60;;
6549;SDS011;15142;48.888;9.134;2023-04-09T14:30:41;6.40;;;4.10;;
6549;SDS011;15142;48.888;9.134;2023-04-09T14:33:10;4.50;;;2.90;;
6549;SDS011;15142;48.888;9.134;2023-04-09T14:35:41;7.00;;;4.00;;
6549;SDS011;15142;48.888;9.134;2023-04-09T14:38:11;4.03;;;3.50;;
6549;SDS011;15142;48.888;9.134;2023-04-09T14:40:41;4.13;;;3.73;;
6549;SDS011;15142;48.888;9.134;2023-04-09T14:43:10;9.43;;;5.70;;
6549;SDS011;15142;48.888;9.134;2023-04-09T14:45:38;8.70;;;5.73;;
6549;SDS011;15142;48.888;9.134;2023-04-09T14:48:07;4.30;;;3.57;;
6549;SDS011;15142;48.888;9.134;2023-04-09T14:50:36;3.50;;;3.20;;
6549;SDS011;15142;48.888;9.134;2023-04-09T14:53:08;6.17;;;4.00;;
6549;SDS011;15142;48.888;9.134;2023-04-09T14:55:37;3.30;;;2.77;;
6549;SDS011;15142;48.888;9.134;2023-04-09T14:58:06;5.23;;;3.30;;
6549;SDS011;15142;48.888;9.134;2023-04-09T15:00:34;5.13;;;3.47;;
6549;SDS011;15142;48.888;9.134;2023-04-09T15:03:03;2.70;;;2.50;;
6549;SDS011;15142;48.888;9.134;2023-04-09T15:05:32;4.17;;;3.33;;
6549;SDS011;15142;48.888;9.134;2023-04-09T15:08:01;4.30;;;3.40;;
6549;SDS011;15142;48.888;9.134;2023-04-09T15:10:34;5.13;;;2.90;;
6549;SDS011;15142;48.888;9.134;2023-04-09T15:13:03;4.33;;;3.33;;
6549;SDS011;15142;48.888;9.134;2023-04-09T15:15:32;3.97;;;3.57;;
6549;SDS011;15142;48.888;9.134;2023-04-09T15:18:01;5.73;;;2.97;;
6549;SDS011;15142;48.888;9.134;2023-04-09T15:20:30;3.63;;;3.33;;
6549;SDS011;15142;48.888;9.134;2023-04-09T15:22:59;3.53;;;2.97;;
6549;SDS011;15142;48.888;9.134;2023-04-09T15:25:28;3.73;;;3.37;;